sensor_id;sensor_type;location;lat;lon;timestamp;pressure;altitude;pressure_sealevel;temperature;humidity
71424;BME280;59240;51.370;-0.486;2023-05-02T00:01:17;102134.53;;;12.19;66.62
71424;BME280;59240;51.370;-0.486;2023-05-02T00:03:43;102159.75;;;12.26;67.12
71424;BME280;59240;51.370;-0.486;2023-05-02T00:06:10;102137.19;;;12.13;67.01
71424;BME280;59240;51.370;-0.486;2023-05-02T00:08:37;102154.59;;;12.17;67.11
71424;BME280;59240;51.370;-0.486;2023-05-02T00:11:04;102124.25;;;11.97;67.34
71424;BME280;59240;51.370;-0.486;2023-05-02T00:13:31;102158.94;;;12.18;67.11
71424;BME280;59240;51.370;-0.486;2023-05-02T00:15:57;102155.50;;;12.07;67.69
71424;BME280;59240;51.370;-0.486;2023-05-02T00:18:24;102160.72;;;12.10;67.45
71424;BME280;59240;51.370;-0.486;2023-05-02T00:20:50;102152.94;;;12.03;67.21
71424;BME280;59240;51.370;-0.486;2023-05-02T00:23:17;102149.47;;;11.98;67.59
71424;BME280;59240;51.370;-0.486;2023-05-02T00:25:44;102160.78;;;11.99;67.87
71424;BME280;59240;51.370;-0.486;2023-05-02T00:28:11;102142.59;;;11.88;67.93
71424;BME280;59240;51.370;-0.486;2023-05-02T00:30:45;102151.28;;;11.90;68.17
71424;BME280;59240;51.370;-0.486;2023-05-02T00:33:13;102164.31;;;11.92;68.18
71424;BME280;59240;51.370;-0.486;2023-05-02T00:35:44;102146.09;;;11.75;68.49
71424;BME280;59240;51.370;-0.486;2023-05-02T00:38:10;102160.00;;;11.83;68.04
71424;BME280;59240;51.370;-0.486;2023-05-02T00:40:47;102168.72;;;11.82;68.60
71424;BME280;59240;51.370;-0.486;2023-05-02T00:43:14;102147.00;;;11.68;68.35
71424;BME280;59240;51.370;-0.486;2023-05-02T00:45:42;102167.81;;;11.80;68.58
71424;BME280;59240;51.370;-0.486;2023-05-02T00:48:10;102163.50;;;11.76;68.21
71424;BME280;59240;51.370;-0.486;2023-05-02T00:50:39;102134.03;;;11.54;68.38
71424;BME280;59240;51.370;-0.486;2023-05-02T00:53:06;102163.53;;;11.70;68.49
71424;BME280;59240;51.370;-0.486;2023-05-02T00:55:33;102137.50;;;11.48;68.40
71424;BME280;59240;51.370;-0.486;2023-05-02T00:58:03;102178.34;;;11.63;68.95
71424;BME280;59240;51.370;-0.486;2023-05-02T01:00:38;102162.72;;;11.56;69.53
71424;BME280;59240;51.370;-0.486;2023-05-02T01:03:20;102161.00;;;11.47;70.41
71424;BME280;59240;51.370;-0.486;2023-05-02T01:05:58;102156.66;;;11.38;69.92
71424;BME280;59240;51.370;-0.486;2023-05-02T01:08:55;102166.25;;;11.39;70.50
71424;BME280;59240;51.370;-0.486;2023-05-02T01:11:38;102151.50;;;11.23;70.45
71424;BME280;59240;51.370;-0.486;2023-05-02T01:14:10;102168.91;;;11.27;69.57
71424;BME280;59240;51.370;-0.486;2023-05-02T01:16:42;102152.41;;;11.11;69.78
71424;BME280;59240;51.370;-0.486;2023-05-02T01:19:34;102172.41;;;11.14;70.87
71424;BME280;59240;51.370;-0.486;2023-05-02T01:22:05;102170.69;;;11.07;69.34
71424;BME280;59240;51.370;-0.486;2023-05-02T01:25:07;102165.47;;;10.96;70.85
71424;BME280;59240;51.370;-0.486;2023-05-02T01:28:00;102175.94;;;10.91;71.06
71424;BME280;59240;51.370;-0.486;2023-05-02T01:30:33;102175.03;;;10.88;70.57
71424;BME280;59240;51.370;-0.486;2023-05-02T01:33:03;102170.69;;;10.76;70.34
71424;BME280;59240;51.370;-0.486;2023-05-02T01:35:32;102165.50;;;10.70;69.96
71424;BME280;59240;51.370;-0.486;2023-05-02T01:38:01;102176.78;;;10.74;70.89
71424;BME280;59240;51.370;-0.486;2023-05-02T01:40:28;102188.94;;;10.70;70.06
71424;BME280;59240;51.370;-0.486;2023-05-02T01:42:57;102186.38;;;10.64;70.54
71424;BME280;59240;51.370;-0.486;2023-05-02T01:45:25;102190.69;;;10.59;70.61
71424;BME280;59240;51.370;-0.486;2023-05-02T01:47:56;102162.03;;;10.37;70.79
71424;BME280;59240;51.370;-0.486;2023-05-02T01:50:24;102193.28;;;10.47;70.50
71424;BME280;59240;51.370;-0.486;2023-05-02T01:52:51;102177.66;;;10.31;71.33
71424;BME280;59240;51.370;-0.486;2023-05-02T01:55:19;102192.41;;;10.38;70.96
71424;BME280;59240;51.370;-0.486;2023-05-02T01:57:51;102187.19;;;10.32;70.48
71424;BME280;59240;51.370;-0.486;2023-05-02T02:00:20;102196.75;;;10.30;71.20
71424;BME280;59240;51.370;-0.486;2023-05-02T02:02:50;102172.34;;;10.13;71.90
71424;BME280;59240;51.370;-0.486;2023-05-02T02:05:18;102194.94;;;10.17;71.93
71424;BME280;59240;51.370;-0.486;2023-05-02T02:07:47;102201.88;;;10.21;72.39
71424;BME280;59240;51.370;-0.486;2023-05-02T02:10:14;102202.75;;;10.12;71.49
71424;BME280;59240;51.370;-0.486;2023-05-02T02:12:44;102192.28;;;10.02;71.58
71424;BME280;59240;51.370;-0.486;2023-05-02T02:15:20;102214.03;;;10.13;72.56
71424;BME280;59240;51.370;-0.486;2023-05-02T02:17:57;102212.28;;;10.03;72.12
71424;BME280;59240;51.370;-0.486;2023-05-02T02:20:27;102207.03;;;9.97;73.06
71424;BME280;59240;51.370;-0.486;2023-05-02T02:22:56;102233.09;;;10.06;72.44
71424;BME280;59240;51.370;-0.486;2023-05-02T02:25:25;102215.72;;;10.02;72.21
71424;BME280;59240;51.370;-0.486;2023-05-02T02:27:52;102238.34;;;10.12;73.43
71424;BME280;59240;51.370;-0.486;2023-05-02T02:30:22;102221.81;;;10.08;74.19
71424;BME280;59240;51.370;-0.486;2023-05-02T02:32:48;102240.09;;;10.16;74.72
71424;BME280;59240;51.370;-0.486;2023-05-02T02:35:15;102231.41;;;10.17;74.07
71424;BME280;59240;51.370;-0.486;2023-05-02T02:37:46;102242.75;;;10.27;75.61
71424;BME280;59240;51.370;-0.486;2023-05-02T02:40:18;102256.66;;;10.32;75.22
71424;BME280;59240;51.370;-0.486;2023-05-02T02:42:56;102259.28;;;10.36;78.90
71424;BME280;59240;51.370;-0.486;2023-05-02T02:45:34;102245.34;;;10.34;77.91
71424;BME280;59240;51.370;-0.486;2023-05-02T02:48:28;102269.72;;;10.52;79.75
71424;BME280;59240;51.370;-0.486;2023-05-02T02:53:45;102231.50;;;10.48;80.88
71424;BME280;59240;51.370;-0.486;2023-05-02T02:56:16;102277.56;;;10.75;76.43
71424;BME280;59240;51.370;-0.486;2023-05-02T02:58:56;102251.53;;;10.73;78.14
71424;BME280;59240;51.370;-0.486;2023-05-02T03:01:26;102274.13;;;10.92;76.80
71424;BME280;59240;51.370;-0.486;2023-05-02T03:03:56;102268.03;;;10.96;76.64
71424;BME280;59240;51.370;-0.486;2023-05-02T03:06:23;102273.25;;;11.06;76.96
71424;BME280;59240;51.370;-0.486;2023-05-02T03:08:50;102271.53;;;11.14;77.46
71424;BME280;59240;51.370;-0.486;2023-05-02T03:11:16;102268.03;;;11.18;77.26
71424;BME280;59240;51.370;-0.486;2023-05-02T03:13:43;102281.94;;;11.28;77.66
71424;BME280;59240;51.370;-0.486;2023-05-02T03:16:24;102277.59;;;11.33;79.20
71424;BME280;59240;51.370;-0.486;2023-05-02T03:18:54;102281.91;;;11.38;77.28
71424;BME280;59240;51.370;-0.486;2023-05-02T03:21:21;102282.78;;;11.43;77.83
71424;BME280;59240;51.370;-0.486;2023-05-02T03:23:48;102259.31;;;11.34;77.65
71424;BME280;59240;51.370;-0.486;2023-05-02T03:26:15;102274.97;;;11.43;78.06
71424;BME280;59240;51.370;-0.486;2023-05-02T03:28:42;102287.13;;;11.55;78.09
71424;BME280;59240;51.370;-0.486;2023-05-02T03:31:12;102285.38;;;11.62;77.22
71424;BME280;59240;51.370;-0.486;2023-05-02T03:33:40;102266.22;;;11.58;76.94
71424;BME280;59240;51.370;-0.486;2023-05-02T03:36:09;102265.34;;;11.62;77.34
71424;BME280;59240;51.370;-0.486;2023-05-02T03:38:36;102273.16;;;11.70;77.32
71424;BME280;59240;51.370;-0.486;2023-05-02T03:41:03;102278.38;;;11.70;77.59
71424;BME280;59240;51.370;-0.486;2023-05-02T03:43:29;102280.09;;;11.77;77.36
71424;BME280;59240;51.370;-0.486;2023-05-02T03:45:57;102289.72;;;11.81;77.92
71424;BME280;59240;51.370;-0.486;2023-05-02T03:48:23;102294.03;;;11.85;77.51
71424;BME280;59240;51.370;-0.486;2023-05-02T03:50:52;102290.56;;;11.82;77.65
71424;BME280;59240;51.370;-0.486;2023-05-02T03:53:19;102287.06;;;11.78;77.14
71424;BME280;59240;51.370;-0.486;2023-05-02T03:55:45;102295.75;;;11.86;77.16
71424;BME280;59240;51.370;-0.486;2023-05-02T03:58:12;102300.09;;;11.92;77.56
71424;BME280;59240;51.370;-0.486;2023-05-02T04:00:39;102306.19;;;11.95;77.52
71424;BME280;59240;51.370;-0.486;2023-05-02T04:03:06;102278.41;;;11.81;77.65
71424;BME280;59240;51.370;-0.486;2023-05-02T04:05:33;102281.81;;;11.79;77.42
71424;BME280;59240;51.370;-0.486;2023-05-02T04:08:00;102306.19;;;11.95;77.47
71424;BME280;59240;51.370;-0.486;2023-05-02T04:10:26;102285.31;;;11.80;77.42
71424;BME280;59240;51.370;-0.486;2023-05-02T04:12:53;102284.44;;;11.79;77.30
71424;BME280;59240;51.370;-0.486;2023-05-02T04:15:19;102307.06;;;11.93;77.09
71424;BME280;59240;51.370;-0.486;2023-05-02T04:17:46;102300.97;;;11.97;77.04
71424;BME280;59240;51.370;-0.486;2023-05-02T04:20:12;102309.66;;;12.03;77.12
71424;BME280;59240;51.370;-0.486;2023-05-02T04:22:39;102312.25;;;12.03;77.23
71424;BME280;59240;51.370;-0.486;2023-05-02T04:25:06;102317.50;;;12.03;77.46
71424;BME280;59240;51.370;-0.486;2023-05-02T04:27:33;102293.13;;;11.94;77.43
71424;BME280;59240;51.370;-0.486;2023-05-02T04:29:59;102311.41;;;11.98;77.49
71424;BME280;59240;51.370;-0.486;2023-05-02T04:32:26;102307.94;;;11.92;78.06
71424;BME280;59240;51.370;-0.486;2023-05-02T04:34:55;102328.81;;;12.01;77.21
71424;BME280;59240;51.370;-0.486;2023-05-02T04:37:22;102337.50;;;12.04;77.03
71424;BME280;59240;51.370;-0.486;2023-05-02T04:39:49;102350.56;;;12.06;77.50
71424;BME280;59240;51.370;-0.486;2023-05-02T04:42:16;102342.75;;;12.01;77.47
71424;BME280;59240;51.370;-0.486;2023-05-02T04:44:42;102354.03;;;12.07;77.87
71424;BME280;59240;51.370;-0.486;2023-05-02T04:47:09;102364.50;;;12.03;77.22
71424;BME280;59240;51.370;-0.486;2023-05-02T04:49:38;102350.56;;;11.98;77.68
71424;BME280;59240;51.370;-0.486;2023-05-02T04:52:05;102379.31;;;12.09;77.49
71424;BME280;59240;51.370;-0.486;2023-05-02T04:54:33;102358.41;;;11.98;77.60
71424;BME280;59240;51.370;-0.486;2023-05-02T04:56:59;102374.94;;;12.03;77.88
71424;BME280;59240;51.370;-0.486;2023-05-02T04:59:29;102379.28;;;12.11;77.77
71424;BME280;59240;51.370;-0.486;2023-05-02T05:01:58;102377.50;;;12.14;77.63
71424;BME280;59240;51.370;-0.486;2023-05-02T05:04:24;102356.66;;;12.03;76.61
71424;BME280;59240;51.370;-0.486;2023-05-02T05:06:51;102374.94;;;12.16;77.93
71424;BME280;59240;51.370;-0.486;2023-05-02T05:09:17;102361.88;;;12.03;77.49
71424;BME280;59240;51.370;-0.486;2023-05-02T05:11:45;102384.47;;;12.20;77.31
71424;BME280;59240;51.370;-0.486;2023-05-02T05:14:14;102379.28;;;12.17;77.62
71424;BME280;59240;51.370;-0.486;2023-05-02T05:16:40;102376.63;;;12.20;77.46
71424;BME280;59240;51.370;-0.486;2023-05-02T05:19:07;102380.97;;;12.30;76.69
71424;BME280;59240;51.370;-0.486;2023-05-02T05:21:34;102382.72;;;12.31;77.13
71424;BME280;59240;51.370;-0.486;2023-05-02T05:24:00;102374.03;;;12.23;77.12
71424;BME280;59240;51.370;-0.486;2023-05-02T05:26:27;102386.19;;;12.31;77.04
71424;BME280;59240;51.370;-0.486;2023-05-02T05:28:54;102390.53;;;12.34;77.37
71424;BME280;59240;51.370;-0.486;2023-05-02T05:31:20;102384.47;;;12.26;77.09
71424;BME280;59240;51.370;-0.486;2023-05-02T05:33:48;102379.25;;;12.20;77.16
71424;BME280;59240;51.370;-0.486;2023-05-02T05:36:14;102401.88;;;12.28;77.12
71424;BME280;59240;51.370;-0.486;2023-05-02T05:38:41;102390.56;;;12.23;77.10
71424;BME280;59240;51.370;-0.486;2023-05-02T05:41:08;102396.66;;;12.30;77.25
71424;BME280;59240;51.370;-0.486;2023-05-02T05:43:34;102400.13;;;12.37;77.46
71424;BME280;59240;51.370;-0.486;2023-05-02T05:46:03;102408.78;;;12.40;77.44
71424;BME280;59240;51.370;-0.486;2023-05-02T05:48:30;102407.06;;;12.41;77.56
71424;BME280;59240;51.370;-0.486;2023-05-02T05:50:57;102407.06;;;12.42;77.23
71424;BME280;59240;51.370;-0.486;2023-05-02T05:53:23;102395.75;;;12.37;76.89
71424;BME280;59240;51.370;-0.486;2023-05-02T05:55:50;102400.97;;;12.39;77.38
71424;BME280;59240;51.370;-0.486;2023-05-02T05:58:16;102403.59;;;12.37;77.53
71424;BME280;59240;51.370;-0.486;2023-05-02T06:00:43;102429.66;;;12.52;76.68
71424;BME280;59240;51.370;-0.486;2023-05-02T06:03:09;102427.91;;;12.54;77.28
71424;BME280;59240;51.370;-0.486;2023-05-02T06:05:37;102431.38;;;12.59;77.44
71424;BME280;59240;51.370;-0.486;2023-05-02T06:08:04;102410.50;;;12.47;77.13
71424;BME280;59240;51.370;-0.486;2023-05-02T06:10:31;102439.19;;;12.63;77.45
71424;BME280;59240;51.370;-0.486;2023-05-02T06:12:58;102413.13;;;12.47;77.24
71424;BME280;59240;51.370;-0.486;2023-05-02T06:15:24;102426.19;;;12.56;76.78
71424;BME280;59240;51.370;-0.486;2023-05-02T06:17:51;102434.84;;;12.68;76.91
71424;BME280;59240;51.370;-0.486;2023-05-02T06:20:18;102426.13;;;12.66;76.89
71424;BME280;59240;51.370;-0.486;2023-05-02T06:22:44;102423.53;;;12.66;77.27
71424;BME280;59240;51.370;-0.486;2023-05-02T06:25:11;102428.75;;;12.70;76.53
71424;BME280;59240;51.370;-0.486;2023-05-02T06:27:37;102427.84;;;12.73;76.56
71424;BME280;59240;51.370;-0.486;2023-05-02T06:30:05;102434.78;;;12.81;77.26
71424;BME280;59240;51.370;-0.486;2023-05-02T06:32:32;102426.09;;;12.72;77.42
71424;BME280;59240;51.370;-0.486;2023-05-02T06:34:58;102429.59;;;12.77;76.81
71424;BME280;59240;51.370;-0.486;2023-05-02T06:37:25;102446.94;;;12.87;76.75
71424;BME280;59240;51.370;-0.486;2023-05-02T06:39:53;102438.25;;;12.85;76.64
71424;BME280;59240;51.370;-0.486;2023-05-02T06:42:20;102451.31;;;12.91;76.42
71424;BME280;59240;51.370;-0.486;2023-05-02T06:44:50;102435.66;;;12.83;76.26
71424;BME280;59240;51.370;-0.486;2023-05-02T06:47:16;102431.28;;;12.81;77.11
71424;BME280;59240;51.370;-0.486;2023-05-02T06:49:43;102443.44;;;12.94;76.70
71424;BME280;59240;51.370;-0.486;2023-05-02T06:52:09;102458.22;;;13.04;77.03
71424;BME280;59240;51.370;-0.486;2023-05-02T06:54:36;102429.47;;;12.94;76.72
71424;BME280;59240;51.370;-0.486;2023-05-02T06:57:04;102464.28;;;13.12;76.64
71424;BME280;59240;51.370;-0.486;2023-05-02T06:59:30;102465.13;;;13.18;76.41
71424;BME280;59240;51.370;-0.486;2023-05-02T07:01:58;102459.88;;;13.16;75.85
71424;BME280;59240;51.370;-0.486;2023-05-02T07:04:25;102461.63;;;13.22;76.08
71424;BME280;59240;51.370;-0.486;2023-05-02T07:06:55;102466.84;;;13.23;75.97
71424;BME280;59240;51.370;-0.486;2023-05-02T07:09:21;102468.59;;;13.26;76.34
71424;BME280;59240;51.370;-0.486;2023-05-02T07:11:48;102469.44;;;13.28;76.31
71424;BME280;59240;51.370;-0.486;2023-05-02T07:14:17;102464.25;;;13.22;75.58
71424;BME280;59240;51.370;-0.486;2023-05-02T07:16:44;102485.06;;;13.37;76.45
71424;BME280;59240;51.370;-0.486;2023-05-02T07:19:13;102479.88;;;13.32;75.25
71424;BME280;59240;51.370;-0.486;2023-05-02T07:21:40;102483.34;;;13.34;75.57
71424;BME280;59240;51.370;-0.486;2023-05-02T07:24:07;102472.91;;;13.30;75.76
71424;BME280;59240;51.370;-0.486;2023-05-02T07:26:34;102492.91;;;13.41;76.01
71424;BME280;59240;51.370;-0.486;2023-05-02T07:29:00;102480.75;;;13.33;75.26
71424;BME280;59240;51.370;-0.486;2023-05-02T07:31:27;102479.88;;;13.34;75.98
71424;BME280;59240;51.370;-0.486;2023-05-02T07:33:54;102488.53;;;13.45;75.02
71424;BME280;59240;51.370;-0.486;2023-05-02T07:36:20;102493.69;;;13.54;74.84
71424;BME280;59240;51.370;-0.486;2023-05-02T07:38:47;102484.91;;;13.58;75.28
71424;BME280;59240;51.370;-0.486;2023-05-02T07:41:13;102480.56;;;13.60;74.84
71424;BME280;59240;51.370;-0.486;2023-05-02T07:43:42;102494.44;;;13.73;74.72
71424;BME280;59240;51.370;-0.486;2023-05-02T07:46:09;102491.81;;;13.75;75.19
71424;BME280;59240;51.370;-0.486;2023-05-02T07:48:39;102488.34;;;13.73;74.46
71424;BME280;59240;51.370;-0.486;2023-05-02T07:51:08;102475.28;;;13.68;74.96
71424;BME280;59240;51.370;-0.486;2023-05-02T07:53:35;102490.03;;;13.77;74.03
71424;BME280;59240;51.370;-0.486;2023-05-02T07:56:06;102488.34;;;13.73;74.96
71424;BME280;59240;51.370;-0.486;2023-05-02T07:58:34;102471.75;;;13.71;74.78
71424;BME280;59240;51.370;-0.486;2023-05-02T08:01:02;102474.34;;;13.74;74.39
71424;BME280;59240;51.370;-0.486;2023-05-02T08:03:29;102463.03;;;13.65;74.57
71424;BME280;59240;51.370;-0.486;2023-05-02T08:05:56;102492.59;;;13.83;74.05
71424;BME280;59240;51.370;-0.486;2023-05-02T08:08:23;102490.91;;;13.77;74.71
71424;BME280;59240;51.370;-0.486;2023-05-02T08:10:49;102483.88;;;13.79;74.04
71424;BME280;59240;51.370;-0.486;2023-05-02T08:13:16;102501.31;;;13.86;73.66
71424;BME280;59240;51.370;-0.486;2023-05-02T08:15:43;102493.50;;;13.82;74.75
71424;BME280;59240;51.370;-0.486;2023-05-02T08:18:10;102505.63;;;13.92;74.36
71424;BME280;59240;51.370;-0.486;2023-05-02T08:20:37;102493.38;;;13.92;74.21
71424;BME280;59240;51.370;-0.486;2023-05-02T08:23:03;102478.59;;;13.85;74.36
71424;BME280;59240;51.370;-0.486;2023-05-02T08:25:30;102503.88;;;13.94;73.63
71424;BME280;59240;51.370;-0.486;2023-05-02T08:27:57;102496.88;;;13.93;73.80
71424;BME280;59240;51.370;-0.486;2023-05-02T08:30:23;102501.31;;;13.88;74.53
71424;BME280;59240;51.370;-0.486;2023-05-02T08:32:52;102510.91;;;13.89;73.15
71424;BME280;59240;51.370;-0.486;2023-05-02T08:35:19;102512.63;;;13.90;73.65
71424;BME280;59240;51.370;-0.486;2023-05-02T08:37:46;102517.81;;;13.96;74.54
71424;BME280;59240;51.370;-0.486;2023-05-02T08:40:13;102510.84;;;13.95;73.37
71424;BME280;59240;51.370;-0.486;2023-05-02T08:42:41;102495.25;;;13.81;73.23
71424;BME280;59240;51.370;-0.486;2023-05-02T08:45:13;102503.97;;;13.82;73.01
71424;BME280;59240;51.370;-0.486;2023-05-02T08:47:42;102525.72;;;13.91;72.96
71424;BME280;59240;51.370;-0.486;2023-05-02T08:50:09;102537.00;;;13.98;73.03
71424;BME280;59240;51.370;-0.486;2023-05-02T08:52:37;102546.63;;;13.98;72.89
71424;BME280;59240;51.370;-0.486;2023-05-02T08:55:05;102558.00;;;13.95;73.55
71424;BME280;59240;51.370;-0.486;2023-05-02T08:57:32;102551.00;;;13.97;72.42
71424;BME280;59240;51.370;-0.486;2023-05-02T08:59:59;102553.66;;;13.95;73.11
71424;BME280;59240;51.370;-0.486;2023-05-02T09:03:09;102555.38;;;13.96;73.13
71424;BME280;59240;51.370;-0.486;2023-05-02T09:05:25;102537.16;;;13.81;72.56
71424;BME280;59240;51.370;-0.486;2023-05-02T09:07:52;102552.78;;;13.95;73.15
71424;BME280;59240;51.370;-0.486;2023-05-02T09:10:20;102562.34;;;13.98;72.28
71424;BME280;59240;51.370;-0.486;2023-05-02T09:12:47;102563.16;;;14.07;72.10
71424;BME280;59240;51.370;-0.486;2023-05-02T09:15:15;102577.06;;;14.15;71.93
71424;BME280;59240;51.370;-0.486;2023-05-02T09:17:48;102577.03;;;14.18;72.95
71424;BME280;59240;51.370;-0.486;2023-05-02T09:20:16;102577.03;;;14.18;72.08
71424;BME280;59240;51.370;-0.486;2023-05-02T09:22:50;102567.41;;;14.20;72.89
71424;BME280;59240;51.370;-0.486;2023-05-02T09:25:19;102567.41;;;14.19;71.89
71424;BME280;59240;51.370;-0.486;2023-05-02T09:27:52;102580.44;;;14.30;72.03
71424;BME280;59240;51.370;-0.486;2023-05-02T09:30:20;102588.25;;;14.37;72.49
71424;BME280;59240;51.370;-0.486;2023-05-02T09:32:48;102577.78;;;14.33;72.01
71424;BME280;59240;51.370;-0.486;2023-05-02T09:35:17;102569.06;;;14.31;71.50
71424;BME280;59240;51.370;-0.486;2023-05-02T09:37:54;102584.72;;;14.41;71.29
71424;BME280;59240;51.370;-0.486;2023-05-02T09:40:21;102579.50;;;14.37;70.49
71424;BME280;59240;51.370;-0.486;2023-05-02T09:42:49;102583.97;;;14.29;71.12
71424;BME280;59240;51.370;-0.486;2023-05-02T09:45:23;102587.47;;;14.28;71.58
71424;BME280;59240;51.370;-0.486;2023-05-02T09:47:50;102591.75;;;14.33;70.96
71424;BME280;59240;51.370;-0.486;2023-05-02T09:50:36;102598.69;;;14.40;70.76
71424;BME280;59240;51.370;-0.486;2023-05-02T09:53:07;102587.34;;;14.40;71.08
71424;BME280;59240;51.370;-0.486;2023-05-02T09:55:35;102582.06;;;14.43;70.37
71424;BME280;59240;51.370;-0.486;2023-05-02T09:58:01;102595.03;;;14.61;70.42
71424;BME280;59240;51.370;-0.486;2023-05-02T10:00:43;102599.31;;;14.68;69.40
71424;BME280;59240;51.370;-0.486;2023-05-02T10:03:17;102588.75;;;14.77;69.55
71424;BME280;59240;51.370;-0.486;2023-05-02T10:05:46;102572.94;;;14.84;69.79
71424;BME280;59240;51.370;-0.486;2023-05-02T10:08:13;102565.88;;;14.89;69.06
71424;BME280;59240;51.370;-0.486;2023-05-02T10:10:47;102578.78;;;15.09;68.73
71424;BME280;59240;51.370;-0.486;2023-05-02T10:13:21;102546.53;;;14.99;69.06
71424;BME280;59240;51.370;-0.486;2023-05-02T10:16:02;102575.94;;;15.25;68.62
71424;BME280;59240;51.370;-0.486;2023-05-02T10:21:25;102596.53;;;15.59;67.31
71424;BME280;59240;51.370;-0.486;2023-05-02T10:23:53;102572.09;;;15.51;67.32
71424;BME280;59240;51.370;-0.486;2023-05-02T10:26:21;102599.88;;;15.70;67.22
71424;BME280;59240;51.370;-0.486;2023-05-02T10:28:49;102604.16;;;15.77;67.46
71424;BME280;59240;51.370;-0.486;2023-05-02T10:31:17;102606.78;;;15.79;66.54
71424;BME280;59240;51.370;-0.486;2023-05-02T10:33:45;102588.50;;;15.70;66.41
71424;BME280;59240;51.370;-0.486;2023-05-02T10:36:19;102585.81;;;15.74;65.97
71424;BME280;59240;51.370;-0.486;2023-05-02T10:38:49;102605.75;;;15.88;66.08
71424;BME280;59240;51.370;-0.486;2023-05-02T10:41:19;102618.72;;;16.00;66.05
71424;BME280;59240;51.370;-0.486;2023-05-02T10:43:48;102620.38;;;16.07;65.89
71424;BME280;59240;51.370;-0.486;2023-05-02T10:46:32;102604.69;;;16.01;64.04
71424;BME280;59240;51.370;-0.486;2023-05-02T10:49:06;102619.44;;;16.09;64.73
71424;BME280;59240;51.370;-0.486;2023-05-02T10:51:35;102617.75;;;16.07;64.99
71424;BME280;59240;51.370;-0.486;2023-05-02T11:01:57;102634.06;;;16.27;64.12
71424;BME280;59240;51.370;-0.486;2023-05-02T11:04:24;102630.44;;;16.34;64.03
71424;BME280;59240;51.370;-0.486;2023-05-02T11:11:54;102624.09;;;16.46;62.42
71424;BME280;59240;51.370;-0.486;2023-05-02T11:19:26;102616.34;;;16.38;62.87
71424;BME280;59240;51.370;-0.486;2023-05-02T11:24:50;102620.66;;;16.42;62.03
71424;BME280;59240;51.370;-0.486;2023-05-02T11:35:24;102620.13;;;16.73;61.25
71424;BME280;59240;51.370;-0.486;2023-05-02T11:37:56;102604.47;;;16.65;59.51
71424;BME280;59240;51.370;-0.486;2023-05-02T11:40:26;102616.56;;;16.77;60.92
71424;BME280;59240;51.370;-0.486;2023-05-02T11:42:53;102583.44;;;16.64;60.75
71424;BME280;59240;51.370;-0.486;2023-05-02T11:45:20;102624.25;;;16.89;60.08
71424;BME280;59240;51.370;-0.486;2023-05-02T11:47:47;102618.97;;;16.89;59.73
71424;BME280;59240;51.370;-0.486;2023-05-02T11:50:14;102615.59;;;16.81;59.45
71424;BME280;59240;51.370;-0.486;2023-05-02T11:52:43;102640.06;;;16.86;59.23
71424;BME280;59240;51.370;-0.486;2023-05-02T11:55:12;102638.34;;;16.85;59.55
71424;BME280;59240;51.370;-0.486;2023-05-02T11:57:40;102633.00;;;16.90;59.35
71424;BME280;59240;51.370;-0.486;2023-05-02T12:00:08;102639.84;;;16.99;59.38
71424;BME280;59240;51.370;-0.486;2023-05-02T12:02:43;102643.28;;;17.04;59.16
71424;BME280;59240;51.370;-0.486;2023-05-02T12:05:12;102647.72;;;17.00;58.71
71424;BME280;59240;51.370;-0.486;2023-05-02T12:07:45;102653.84;;;17.02;57.50
71424;BME280;59240;51.370;-0.486;2023-05-02T12:10:14;102646.88;;;16.98;58.95
71424;BME280;59240;51.370;-0.486;2023-05-02T12:12:43;102639.13;;;16.90;58.02
71424;BME280;59240;51.370;-0.486;2023-05-02T12:15:11;102657.50;;;16.93;57.82
71424;BME280;59240;51.370;-0.486;2023-05-02T12:17:40;102641.81;;;16.87;57.82
71424;BME280;59240;51.370;-0.486;2023-05-02T12:20:11;102663.56;;;16.99;58.30
71424;BME280;59240;51.370;-0.486;2023-05-02T12:22:38;102637.41;;;16.89;57.94
71424;BME280;59240;51.370;-0.486;2023-05-02T12:25:05;102659.22;;;16.94;58.13
71424;BME280;59240;51.370;-0.486;2023-05-02T12:27:32;102643.56;;;16.88;58.17
71424;BME280;59240;51.370;-0.486;2023-05-02T12:30:00;102651.31;;;16.94;58.33
71424;BME280;59240;51.370;-0.486;2023-05-02T12:32:33;102620.94;;;16.78;57.33
71424;BME280;59240;51.370;-0.486;2023-05-02T12:35:02;102635.69;;;16.87;58.31
71424;BME280;59240;51.370;-0.486;2023-05-02T12:37:29;102641.69;;;16.93;57.77
71424;BME280;59240;51.370;-0.486;2023-05-02T12:39:56;102629.44;;;16.92;58.17
71424;BME280;59240;51.370;-0.486;2023-05-02T12:42:24;102652.06;;;17.03;57.66
71424;BME280;59240;51.370;-0.486;2023-05-02T12:44:51;102619.03;;;16.86;57.84
71424;BME280;59240;51.370;-0.486;2023-05-02T12:47:19;102640.59;;;17.05;57.31
71424;BME280;59240;51.370;-0.486;2023-05-02T12:49:52;102651.06;;;17.08;57.68
71424;BME280;59240;51.370;-0.486;2023-05-02T12:52:49;102662.22;;;17.21;56.94
71424;BME280;59240;51.370;-0.486;2023-05-02T12:55:21;102643.94;;;17.13;57.05
71424;BME280;59240;51.370;-0.486;2023-05-02T12:58:11;102651.00;;;17.13;55.67
71424;BME280;59240;51.370;-0.486;2023-05-02T13:00:41;102662.34;;;17.15;56.87
71424;BME280;59240;51.370;-0.486;2023-05-02T13:03:10;102648.47;;;17.07;57.20
71424;BME280;59240;51.370;-0.486;2023-05-02T13:05:37;102667.56;;;17.18;57.43
71424;BME280;59240;51.370;-0.486;2023-05-02T13:08:07;102654.31;;;17.22;57.04
71424;BME280;59240;51.370;-0.486;2023-05-02T13:10:33;102648.94;;;17.27;57.05
71424;BME280;59240;51.370;-0.486;2023-05-02T13:13:03;102639.31;;;17.26;56.99
71424;BME280;59240;51.370;-0.486;2023-05-02T13:15:29;102625.44;;;17.18;56.31
71424;BME280;59240;51.370;-0.486;2023-05-02T13:17:56;102638.28;;;17.33;56.46
71424;BME280;59240;51.370;-0.486;2023-05-02T13:20:23;102632.19;;;17.31;55.94
71424;BME280;59240;51.370;-0.486;2023-05-02T13:22:49;102631.31;;;17.31;56.32
71424;BME280;59240;51.370;-0.486;2023-05-02T13:25:16;102638.28;;;17.33;56.01